Time;durP1;ratioP1;P1;durP2;ratioP2;P2;SDS_P1;SDS_P2;PMS_P1;PMS_P2;Temp;Humidity;BMP_temperature;BMP_pressure;BME280_temperature;BME280_humidity;BME280_pressure;Samples;Min_cycle;Max_cycle;Signal;HPM_P1;HPM_P2
2021/06/01 00:00:36;;;;;;;8.00;6.28;;;17.10;71.50;;;;;;5008484;28;20030;-75
2021/06/01 00:03:02;;;;;;;9.15;6.25;;;17.00;71.60;;;;;;5007532;28;20022;-75
2021/06/01 00:05:28;;;;;;;8.95;6.30;;;17.00;71.70;;;;;;5008535;28;20041;-74
2021/06/01 00:07:53;;;;;;;11.07;5.97;;;17.00;71.90;;;;;;5005870;28;20556;-74
2021/06/01 00:10:19;;;;;;;9.32;6.53;;;16.90;71.80;;;;;;5008891;28;20042;-74
2021/06/01 00:12:45;;;;;;;8.82;6.00;;;16.90;71.90;;;;;;5004073;28;20350;-74
2021/06/01 00:15:11;;;;;;;8.93;6.20;;;16.90;72.20;;;;;;5005300;28;20034;-74
2021/06/01 00:17:37;;;;;;;9.32;5.72;;;16.90;72.50;;;;;;5006277;28;20029;-74
2021/06/01 00:20:10;;;;;;;9.63;6.30;;;16.80;72.60;;;;;;5006742;28;20026;-74
2021/06/01 00:22:36;;;;;;;10.52;6.50;;;16.80;73.00;;;;;;5003326;28;20472;-74
2021/06/01 00:25:03;;;;;;;8.55;6.20;;;16.80;72.80;;;;;;5007298;28;20088;-75
2021/06/01 00:27:29;;;;;;;12.15;6.97;;;16.80;73.40;;;;;;5003215;28;20527;-74
2021/06/01 00:29:55;;;;;;;9.48;6.78;;;16.80;74.10;;;;;;5010420;28;20030;-74
2021/06/01 00:32:21;;;;;;;9.10;6.57;;;16.80;73.70;;;;;;5003217;28;20315;-74
2021/06/01 00:34:46;;;;;;;10.00;6.55;;;16.80;73.80;;;;;;5004829;28;20030;-74
2021/06/01 00:37:12;;;;;;;7.70;6.10;;;16.70;73.50;;;;;;5006686;28;20034;-75
2021/06/01 00:39:38;;;;;;;9.32;6.05;;;16.70;73.50;;;;;;5008005;28;20048;-74
2021/06/01 00:42:04;;;;;;;11.02;6.75;;;16.60;73.50;;;;;;5006838;28;20026;-75
2021/06/01 00:44:30;;;;;;;9.02;6.35;;;16.60;74.40;;;;;;5021573;28;20472;-74
2021/06/01 00:46:56;;;;;;;10.80;6.68;;;16.60;74.30;;;;;;5003295;28;20076;-74
2021/06/01 00:49:21;;;;;;;8.77;6.05;;;16.60;74.10;;;;;;5006887;28;20464;-74
2021/06/01 00:51:47;;;;;;;8.27;6.47;;;16.50;74.00;;;;;;5007433;28;20038;-75
2021/06/01 00:54:13;;;;;;;10.65;6.90;;;16.50;74.40;;;;;;5007870;28;20034;-75
2021/06/01 00:56:41;;;;;;;9.52;6.70;;;16.40;74.60;;;;;;5005369;28;20026;-74
2021/06/01 00:59:07;;;;;;;8.93;6.55;;;16.40;75.00;;;;;;5007799;28;20100;-74
2021/06/01 01:01:32;;;;;;;10.20;6.18;;;16.40;75.40;;;;;;5006450;28;20472;-74
2021/06/01 01:03:58;;;;;;;10.38;6.40;;;16.40;75.50;;;;;;5003530;28;20104;-74
2021/06/01 01:06:44;;;;;;;10.32;6.70;;;16.30;75.00;;;;;;5007214;28;20256;-74
2021/06/01 01:09:14;;;;;;;11.05;6.15;;;16.30;75.40;;;;;;5006745;28;20077;-74
2021/06/01 01:12:03;;;;;;;9.25;6.65;;;16.30;75.10;;;;;;5004756;28;20054;-75
2021/06/01 01:14:36;;;;;;;10.70;7.15;;;16.20;75.10;;;;;;5006175;28;20034;-75
2021/06/01 01:17:07;;;;;;;9.85;6.85;;;16.20;75.30;;;;;;5004101;28;20030;-75
2021/06/01 01:19:53;;;;;;;10.25;7.47;;;16.20;75.50;;;;;;5004933;28;20039;-75
2021/06/01 01:22:20;;;;;;;13.02;6.93;;;16.10;75.90;;;;;;5006040;28;20041;-74
2021/06/01 01:25:06;;;;;;;10.55;7.25;;;16.10;76.30;;;;;;5006386;28;20027;-74
2021/06/01 01:27:51;;;;;;;7.97;6.32;;;16.10;76.50;;;;;;5004488;28;20112;-74
2021/06/01 01:30:17;;;;;;;10.38;6.70;;;16.10;76.20;;;;;;5006259;28;20030;-74
2021/06/01 01:32:46;;;;;;;12.10;7.22;;;16.00;76.60;;;;;;5003151;28;20026;-75
2021/06/01 01:35:14;;;;;;;9.65;7.10;;;16.00;77.10;;;;;;5005524;28;20456;-75
2021/06/01 01:37:41;;;;;;;9.32;6.80;;;16.00;77.10;;;;;;5009911;28;20392;-75
2021/06/01 01:40:08;;;;;;;8.82;6.63;;;15.90;76.80;;;;;;5010054;28;20029;-74
2021/06/01 01:42:42;;;;;;;10.75;6.80;;;16.00;76.70;;;;;;5008577;28;20026;-74
2021/06/01 01:45:17;;;;;;;10.30;6.55;;;15.90;77.10;;;;;;5011198;28;20033;-75
2021/06/01 01:50:18;;;;;;;9.85;7.07;;;15.90;77.10;;;;;;5007337;28;20030;-75
2021/06/01 01:52:44;;;;;;;10.75;7.18;;;15.80;77.30;;;;;;5009748;28;20036;-74
2021/06/01 01:55:11;;;;;;;10.85;6.93;;;15.80;77.40;;;;;;5009474;28;20397;-75
2021/06/01 01:57:43;;;;;;;10.07;7.00;;;15.80;77.50;;;;;;5009481;28;20508;-74
2021/06/01 02:00:13;;;;;;;8.70;6.53;;;15.70;77.80;;;;;;5011104;28;20099;-74
2021/06/01 02:02:39;;;;;;;9.55;7.38;;;15.70;77.90;;;;;;5016436;28;20534;-74
2021/06/01 02:05:06;;;;;;;12.50;7.03;;;15.70;77.70;;;;;;5011093;28;20036;-74
2021/06/01 02:07:33;;;;;;;9.57;7.35;;;15.70;78.00;;;;;;5008311;28;20473;-75
2021/06/01 02:09:59;;;;;;;9.52;6.80;;;15.70;77.90;;;;;;5003574;28;20091;-74
2021/06/01 02:12:25;;;;;;;10.80;7.43;;;15.60;77.80;;;;;;5009374;28;20034;-75
2021/06/01 02:14:55;;;;;;;8.75;6.43;;;15.70;78.20;;;;;;5010573;28;20100;-74
2021/06/01 02:17:21;;;;;;;11.30;6.97;;;15.70;78.20;;;;;;5005273;28;20464;-74
2021/06/01 02:19:48;;;;;;;8.88;6.60;;;15.60;78.10;;;;;;5009792;28;20337;-74
2021/06/01 02:25:08;;;;;;;10.98;7.43;;;15.50;78.30;;;;;;5008616;28;20053;-74
2021/06/01 02:27:40;;;;;;;10.63;6.72;;;15.50;78.30;;;;;;5011156;28;20584;-74
2021/06/01 02:30:19;;;;;;;11.25;6.25;;;15.50;78.00;;;;;;5010301;28;20022;-74
2021/06/01 02:32:54;;;;;;;8.55;6.55;;;15.50;77.90;;;;;;5008970;28;20026;-74
2021/06/01 02:35:32;;;;;;;11.90;6.70;;;15.50;77.90;;;;;;5005249;28;20470;-74
2021/06/01 02:38:04;;;;;;;11.52;7.25;;;15.50;78.50;;;;;;5010497;28;20032;-75
2021/06/01 02:40:31;;;;;;;11.07;6.53;;;15.40;78.50;;;;;;5005496;28;20088;-75
2021/06/01 02:43:00;;;;;;;10.70;6.85;;;15.40;78.60;;;;;;5010267;28;20274;-74
2021/06/01 02:45:26;;;;;;;9.55;7.10;;;15.40;78.60;;;;;;5009117;28;20544;-75
2021/06/01 02:47:53;;;;;;;10.73;7.20;;;15.30;78.90;;;;;;5008871;28;20381;-75
2021/06/01 02:50:20;;;;;;;10.35;6.93;;;15.30;79.00;;;;;;5009309;28;20065;-74
2021/06/01 02:52:48;;;;;;;8.80;7.00;;;15.30;79.00;;;;;;5017817;28;20103;-75
2021/06/01 02:55:18;;;;;;;9.70;6.40;;;15.30;79.60;;;;;;5006427;28;20034;-75
2021/06/01 02:57:44;;;;;;;10.00;6.72;;;15.20;79.70;;;;;;5004177;28;20540;-74
2021/06/01 03:00:14;;;;;;;11.20;7.30;;;15.20;79.70;;;;;;5008762;28;20125;-74
2021/06/01 03:02:40;;;;;;;13.02;7.20;;;15.20;80.10;;;;;;5008628;28;20036;-74
2021/06/01 03:05:06;;;;;;;11.18;7.57;;;15.20;80.00;;;;;;5010499;28;20022;-74
2021/06/01 03:07:32;;;;;;;8.82;6.20;;;15.10;80.20;;;;;;5004028;28;20104;-74
2021/06/01 03:09:59;;;;;;;10.32;6.95;;;15.10;79.80;;;;;;5015196;28;20540;-74
2021/06/01 03:12:39;;;;;;;9.32;6.80;;;15.10;80.40;;;;;;5005891;28;20040;-74
2021/06/01 03:15:06;;;;;;;14.65;7.38;;;15.10;80.30;;;;;;5006502;28;20125;-75
2021/06/01 03:17:32;;;;;;;10.20;7.13;;;15.10;80.00;;;;;;5005590;28;20035;-74
2021/06/01 03:19:58;;;;;;;8.60;6.18;;;15.10;80.30;;;;;;5009073;28;20040;-74
2021/06/01 03:22:24;;;;;;;8.70;6.15;;;15.10;80.10;;;;;;5010312;28;20034;-74
2021/06/01 03:24:50;;;;;;;7.88;6.05;;;15.10;80.10;;;;;;5007578;28;20704;-75
2021/06/01 03:27:15;;;;;;;9.40;6.70;;;15.10;80.20;;;;;;5007000;28;20022;-75
2021/06/01 03:29:41;;;;;;;8.48;6.05;;;15.00;80.30;;;;;;5005013;28;20112;-74
2021/06/01 03:32:07;;;;;;;11.20;6.55;;;15.00;80.50;;;;;;5008554;28;20537;-74
2021/06/01 03:34:33;;;;;;;10.77;6.97;;;15.00;80.40;;;;;;5008028;28;20029;-74
2021/06/01 03:36:59;;;;;;;12.60;7.07;;;15.00;80.70;;;;;;5008731;28;20033;-75
2021/06/01 03:39:28;;;;;;;9.60;6.93;;;15.00;80.90;;;;;;5006169;28;20044;-74
2021/06/01 03:41:53;;;;;;;9.88;7.38;;;15.00;80.80;;;;;;5007073;28;20392;-74
2021/06/01 03:44:19;;;;;;;8.60;5.85;;;15.00;81.00;;;;;;5008774;28;20026;-74
2021/06/01 03:46:45;;;;;;;8.90;6.40;;;15.00;80.90;;;;;;5007962;28;20042;-75
2021/06/01 03:49:10;;;;;;;11.20;7.10;;;15.00;81.00;;;;;;5013275;28;20030;-74
2021/06/01 03:51:36;;;;;;;10.18;6.80;;;15.00;81.10;;;;;;5007289;28;20120;-75
2021/06/01 03:54:03;;;;;;;11.32;7.53;;;15.00;81.40;;;;;;5006196;28;20391;-74
2021/06/01 03:56:28;;;;;;;10.32;6.60;;;15.00;81.70;;;;;;5007464;28;20473;-75
2021/06/01 03:58:54;;;;;;;10.80;6.88;;;15.00;81.50;;;;;;5006271;28;20105;-75
2021/06/01 04:01:20;;;;;;;12.32;7.53;;;15.00;81.30;;;;;;5015911;28;20022;-74
2021/06/01 04:03:46;;;;;;;12.00;7.63;;;15.10;81.60;;;;;;5006765;28;20041;-74
2021/06/01 04:06:12;;;;;;;12.15;7.18;;;15.00;81.80;;;;;;5006692;28;20034;-75
2021/06/01 04:08:38;;;;;;;11.32;7.07;;;15.00;81.60;;;;;;5004854;28;20042;-75
2021/06/01 04:11:05;;;;;;;12.35;7.72;;;15.00;81.40;;;;;;5006216;28;20397;-74
2021/06/01 04:13:30;;;;;;;11.13;7.38;;;15.00;81.90;;;;;;5007741;28;20120;-75
2021/06/01 04:15:56;;;;;;;13.05;7.28;;;15.10;82.10;;;;;;5005330;28;20109;-75
2021/06/01 04:18:22;;;;;;;11.93;7.70;;;15.10;82.00;;;;;;5001007;28;20105;-75
2021/06/01 04:20:48;;;;;;;10.57;7.30;;;15.10;82.30;;;;;;5006731;28;20346;-75
2021/06/01 04:23:14;;;;;;;10.98;7.22;;;15.10;82.10;;;;;;5005756;28;20033;-74
2021/06/01 04:25:40;;;;;;;12.75;7.15;;;15.10;81.90;;;;;;5005690;28;20404;-74
2021/06/01 04:28:06;;;;;;;10.32;7.28;;;15.20;82.00;;;;;;5004688;28;20076;-75
2021/06/01 04:30:33;;;;;;;12.93;7.32;;;15.20;82.00;;;;;;5007671;28;20045;-75
2021/06/01 04:32:59;;;;;;;12.00;7.03;;;15.20;81.80;;;;;;5005829;28;20026;-74
2021/06/01 04:35:25;;;;;;;12.27;7.40;;;15.30;81.60;;;;;;5005257;28;20104;-75
2021/06/01 04:37:51;;;;;;;12.20;7.40;;;15.30;81.50;;;;;;5008862;28;20037;-75
2021/06/01 04:40:17;;;;;;;11.25;7.35;;;15.30;81.60;;;;;;5005785;28;20026;-75
2021/06/01 04:42:44;;;;;;;11.55;7.60;;;15.40;81.80;;;;;;5006409;28;20088;-74
2021/06/01 04:45:12;;;;;;;12.10;7.53;;;15.40;81.60;;;;;;5006914;28;20107;-75
2021/06/01 04:47:38;;;;;;;9.13;6.65;;;15.40;81.50;;;;;;5004708;28;20038;-74
2021/06/01 04:50:04;;;;;;;11.30;7.13;;;15.40;81.40;;;;;;5007614;28;20232;-74
2021/06/01 04:52:30;;;;;;;14.23;8.20;;;15.50;81.40;;;;;;5002979;28;20100;-75
2021/06/01 04:54:55;;;;;;;11.18;6.93;;;15.50;81.50;;;;;;5004579;28;20049;-75
2021/06/01 04:57:21;;;;;;;11.45;7.10;;;15.50;81.40;;;;;;5005966;28;20077;-75
2021/06/01 04:59:47;;;;;;;10.75;7.35;;;15.50;81.40;;;;;;5005113;28;20037;-75
2021/06/01 05:02:13;;;;;;;10.88;6.35;;;15.60;81.30;;;;;;5004075;28;20252;-75
2021/06/01 05:04:38;;;;;;;9.50;6.57;;;15.60;81.10;;;;;;5005423;28;20037;-74
2021/06/01 05:07:04;;;;;;;9.15;6.70;;;15.60;81.10;;;;;;5002083;28;20034;-76
2021/06/01 05:09:30;;;;;;;12.23;7.80;;;15.70;81.40;;;;;;5001970;28;20088;-74
2021/06/01 05:11:56;;;;;;;8.80;7.10;;;15.70;81.20;;;;;;5005438;28;20030;-75
2021/06/01 05:14:22;;;;;;;11.02;7.35;;;15.80;81.20;;;;;;5022060;28;20083;-76
2021/06/01 05:16:49;;;;;;;10.07;7.68;;;15.80;81.20;;;;;;5019767;28;20030;-75
2021/06/01 05:19:15;;;;;;;10.60;7.30;;;15.90;81.20;;;;;;5015271;28;20056;-74
2021/06/01 05:21:41;;;;;;;11.88;7.07;;;16.00;80.80;;;;;;5008844;28;20128;-74
2021/06/01 05:24:07;;;;;;;9.40;6.75;;;16.10;80.50;;;;;;5008573;28;20133;-73
2021/06/01 05:26:33;;;;;;;10.45;6.60;;;16.10;80.00;;;;;;5005311;28;20030;-73
2021/06/01 05:28:59;;;;;;;11.18;6.38;;;16.20;79.70;;;;;;5008720;28;20459;-73
2021/06/01 05:31:31;;;;;;;9.15;6.75;;;16.20;79.40;;;;;;5009356;28;20053;-72
2021/06/01 05:34:02;;;;;;;11.63;7.03;;;16.20;79.20;;;;;;5012531;28;20025;-73
2021/06/01 05:36:28;;;;;;;13.15;6.60;;;16.20;79.10;;;;;;5006505;28;20038;-74
2021/06/01 05:38:55;;;;;;;7.80;4.80;;;16.30;79.00;;;;;;5005792;28;20435;-73
2021/06/01 05:41:21;;;;;;;13.82;5.25;;;16.30;78.70;;;;;;5009786;28;20026;-73
2021/06/01 05:43:46;;;;;;;9.05;4.95;;;16.40;78.60;;;;;;5010309;28;20022;-70
2021/06/01 05:46:12;;;;;;;6.80;4.35;;;16.40;77.20;;;;;;5009859;28;20125;-70
2021/06/01 05:48:37;;;;;;;7.88;4.47;;;16.40;76.50;;;;;;5011002;28;20107;-71
2021/06/01 05:51:04;;;;;;;7.53;4.95;;;16.50;76.30;;;;;;5008443;28;20471;-71
2021/06/01 05:53:30;;;;;;;8.38;5.22;;;16.50;76.00;;;;;;5011156;28;20026;-71
2021/06/01 05:55:56;;;;;;;8.57;4.80;;;16.50;75.50;;;;;;5007221;28;20037;-70
2021/06/01 05:58:23;;;;;;;7.95;5.22;;;16.50;75.50;;;;;;5003466;28;20444;-70
2021/06/01 06:00:49;;;;;;;8.10;4.93;;;16.60;75.40;;;;;;5006945;28;20026;-68
2021/06/01 06:03:16;;;;;;;9.70;4.70;;;16.60;75.50;;;;;;5013329;28;20026;-70
2021/06/01 06:05:42;;;;;;;6.18;5.00;;;16.70;75.70;;;;;;5014689;28;20435;-71
2021/06/01 06:08:13;;;;;;;6.47;4.80;;;16.60;75.70;;;;;;5008077;28;20044;-69
2021/06/01 06:10:40;;;;;;;6.95;5.13;;;16.60;75.90;;;;;;5011445;28;20037;-71
2021/06/01 06:13:06;;;;;;;10.02;5.43;;;16.70;76.00;;;;;;5002228;28;20099;-70
2021/06/01 06:15:33;;;;;;;7.15;4.43;;;16.70;76.20;;;;;;5011106;28;20038;-71
2021/06/01 06:18:04;;;;;;;6.30;4.72;;;16.80;76.10;;;;;;5010490;28;20026;-70
2021/06/01 06:20:31;;;;;;;;;;;16.80;75.80;;;;;;4995905;28;20038;-72
2021/06/01 06:22:57;;;;;;;11.00;5.28;;;16.90;75.90;;;;;;5008700;28;20376;-71
2021/06/01 06:25:23;;;;;;;12.55;5.18;;;16.90;74.90;;;;;;5010284;28;20041;-73
2021/06/01 06:27:49;;;;;;;6.85;4.43;;;17.00;74.50;;;;;;5007525;28;20559;-73
2021/06/01 06:30:16;;;;;;;5.45;3.85;;;17.10;74.10;;;;;;5006236;28;20164;-73
2021/06/01 06:32:42;;;;;;;6.50;4.20;;;17.10;73.80;;;;;;5008342;28;20121;-72
2021/06/01 06:35:08;;;;;;;6.65;4.15;;;17.20;73.30;;;;;;5012377;28;20337;-73
2021/06/01 06:37:34;;;;;;;5.38;3.80;;;17.40;73.20;;;;;;5010435;28;20089;-72
2021/06/01 06:40:01;;;;;;;5.05;3.83;;;17.40;72.70;;;;;;5008308;28;20030;-72
2021/06/01 06:42:27;;;;;;;5.57;3.88;;;17.50;72.10;;;;;;5009779;28;20030;-71
2021/06/01 06:44:53;;;;;;;5.53;3.58;;;17.50;68.80;;;;;;5016172;28;20553;-71
2021/06/01 06:49:54;;;;;;;5.35;3.35;;;17.60;65.70;;;;;;5007636;28;20472;-72
2021/06/01 06:52:20;;;;;;;4.22;2.83;;;17.70;65.70;;;;;;5006183;28;20046;-71
2021/06/01 06:54:46;;;;;;;3.63;2.40;;;17.70;63.50;;;;;;5006714;28;20447;-71
2021/06/01 06:57:11;;;;;;;4.10;3.00;;;17.90;64.30;;;;;;5009099;28;20029;-72
2021/06/01 06:59:37;;;;;;;4.13;2.50;;;17.90;63.40;;;;;;5005558;28;20536;-72
2021/06/01 07:02:04;;;;;;;4.68;2.28;;;17.90;63.30;;;;;;5008180;28;20395;-72
2021/06/01 07:04:30;;;;;;;4.82;2.47;;;17.90;63.10;;;;;;5008236;28;20157;-72
2021/06/01 07:06:58;;;;;;;5.25;2.75;;;18.00;62.90;;;;;;5006945;28;20030;-71
2021/06/01 07:09:25;;;;;;;5.32;2.92;;;18.10;61.10;;;;;;5003755;28;20037;-72
2021/06/01 07:11:50;;;;;;;3.90;2.20;;;18.10;58.60;;;;;;5007605;28;20026;-72
2021/06/01 07:14:16;;;;;;;2.95;2.30;;;18.20;58.50;;;;;;5007183;28;20373;-72
2021/06/01 07:16:42;;;;;;;5.00;2.75;;;18.30;59.30;;;;;;5003610;28;20033;-72
2021/06/01 07:19:08;;;;;;;3.50;2.38;;;18.30;57.70;;;;;;5006766;28;20496;-72
2021/06/01 07:21:34;;;;;;;4.95;2.55;;;18.30;56.80;;;;;;5007445;28;20030;-72
2021/06/01 07:24:00;;;;;;;3.55;2.40;;;18.40;54.20;;;;;;5009950;28;20453;-72
2021/06/01 07:26:25;;;;;;;2.97;2.33;;;18.50;56.00;;;;;;5008824;28;20093;-72
2021/06/01 07:28:52;;;;;;;3.17;2.50;;;18.50;56.50;;;;;;5005963;28;20396;-71
2021/06/01 07:31:18;;;;;;;3.53;2.60;;;18.60;56.00;;;;;;5003379;28;20100;-72
2021/06/01 07:33:46;;;;;;;3.70;2.80;;;18.60;56.20;;;;;;5009149;28;20570;-71
2021/06/01 07:36:13;;;;;;;2.92;2.10;;;18.60;54.00;;;;;;5006977;28;20465;-72
2021/06/01 07:38:39;;;;;;;5.28;2.40;;;18.60;53.70;;;;;;5015882;28;20105;-72
2021/06/01 07:41:07;;;;;;;3.15;2.33;;;18.60;52.80;;;;;;5006731;28;20350;-72
2021/06/01 07:43:33;;;;;;;3.42;2.50;;;18.60;52.90;;;;;;5006396;28;20028;-71
2021/06/01 07:45:59;;;;;;;3.75;2.30;;;18.60;53.90;;;;;;5003678;28;20026;-71
2021/06/01 07:48:25;;;;;;;4.00;2.47;;;18.70;54.70;;;;;;5005972;28;20030;-71
2021/06/01 07:50:51;;;;;;;2.53;2.15;;;18.70;51.60;;;;;;5008427;28;20060;-72
2021/06/01 07:53:18;;;;;;;3.55;2.28;;;18.60;50.40;;;;;;5006921;28;20056;-72
2021/06/01 07:55:43;;;;;;;3.28;2.13;;;18.60;49.20;;;;;;5003456;28;20045;-72
2021/06/01 07:58:10;;;;;;;4.25;2.13;;;18.60;48.60;;;;;;5007529;28;20035;-72
2021/06/01 08:00:36;;;;;;;2.88;2.10;;;18.70;49.50;;;;;;5004037;28;20022;-71
2021/06/01 08:03:02;;;;;;;3.15;1.90;;;18.70;49.60;;;;;;5007573;28;20029;-72
2021/06/01 08:05:28;;;;;;;4.80;2.50;;;18.80;48.60;;;;;;5004584;28;20041;-71
2021/06/01 08:07:54;;;;;;;2.40;1.80;;;18.80;48.10;;;;;;5006347;28;20553;-72
2021/06/01 08:10:23;;;;;;;3.88;2.20;;;18.90;48.10;;;;;;5009306;28;20026;-72
2021/06/01 08:12:50;;;;;;;3.53;2.40;;;18.90;48.50;;;;;;5008081;28;20041;-72
2021/06/01 08:15:19;;;;;;;3.58;2.45;;;19.00;48.90;;;;;;5006179;28;20030;-72
2021/06/01 08:17:46;;;;;;;3.70;2.25;;;19.10;49.20;;;;;;5004816;28;20496;-74
2021/06/01 08:20:26;;;;;;;4.03;2.70;;;19.20;49.10;;;;;;5003995;28;20068;-74
2021/06/01 08:22:52;;;;;;;4.18;2.40;;;19.20;49.40;;;;;;5008032;28;20058;-74
2021/06/01 08:25:18;;;;;;;3.90;2.47;;;19.20;49.00;;;;;;5006516;28;20065;-71
2021/06/01 08:27:43;;;;;;;4.05;2.30;;;19.30;49.10;;;;;;5002215;28;20057;-72
2021/06/01 08:30:15;;;;;;;3.35;2.30;;;19.40;49.30;;;;;;5005734;28;20842;-77
2021/06/01 08:32:41;;;;;;;4.15;2.90;;;19.40;49.50;;;;;;5005338;28;20108;-72
2021/06/01 08:35:07;;;;;;;4.90;2.88;;;19.40;49.80;;;;;;5004016;28;20109;-72
2021/06/01 08:37:36;;;;;;;3.78;2.33;;;19.50;49.90;;;;;;5006821;28;20030;-72
2021/06/01 08:40:03;;;;;;;4.53;2.90;;;19.60;50.60;;;;;;5006948;28;20093;-71
2021/06/01 08:42:29;;;;;;;3.58;2.40;;;19.60;51.10;;;;;;5007930;28;20028;-71
2021/06/01 08:44:55;;;;;;;3.85;2.80;;;19.70;50.60;;;;;;5007070;28;20026;-72
2021/06/01 08:47:21;;;;;;;5.63;3.83;;;19.70;50.10;;;;;;5003907;28;20045;-72
2021/06/01 08:49:47;;;;;;;5.13;2.90;;;19.70;49.60;;;;;;5006110;28;20065;-72
2021/06/01 08:52:15;;;;;;;3.53;2.65;;;19.70;50.20;;;;;;5003604;28;20030;-72
2021/06/01 08:54:41;;;;;;;3.30;2.25;;;19.80;50.90;;;;;;5008548;28;20038;-72
2021/06/01 08:57:08;;;;;;;3.95;2.80;;;19.90;50.90;;;;;;5006420;28;20445;-72
2021/06/01 08:59:35;;;;;;;4.38;2.60;;;20.00;50.60;;;;;;5005141;28;20033;-72
2021/06/01 09:02:02;;;;;;;4.07;2.53;;;20.00;49.50;;;;;;5004871;28;20022;-71
2021/06/01 09:04:53;;;;;;;5.07;2.88;;;20.10;49.60;;;;;;5006571;28;20097;-71
2021/06/01 09:07:37;;;;;;;;;;;20.10;48.80;;;;;;5003808;28;20038;-71
2021/06/01 09:21:44;;;;;;;4.80;2.55;;;20.10;47.20;;;;;;5009752;28;20484;-72
2021/06/01 09:24:10;;;;;;;4.85;2.70;;;20.10;47.50;;;;;;5006744;28;20058;-70
2021/06/01 09:27:16;;;;;;;5.07;3.05;;;20.20;47.50;;;;;;5006247;28;20503;-73
2021/06/01 09:29:34;;;;;;;5.82;2.80;;;20.20;47.80;;;;;;5008950;28;20441;-71
2021/06/01 09:32:15;;;;;;;2.90;2.30;;;20.30;47.80;;;;;;5008329;28;20049;-72
2021/06/01 09:34:45;;;;;;;3.92;2.70;;;20.30;47.80;;;;;;5006161;28;20026;-72
2021/06/01 09:37:28;;;;;;;6.60;2.67;;;20.40;48.30;;;;;;5006830;28;20408;-72
2021/06/01 09:40:19;;;;;;;4.13;2.95;;;20.50;49.20;;;;;;5004580;28;20062;-72
2021/06/01 09:42:51;;;;;;;5.43;3.35;;;20.60;49.20;;;;;;5007925;28;20080;-72
2021/06/01 09:45:19;;;;;;;4.63;2.95;;;20.60;49.10;;;;;;5003620;28;20083;-72
2021/06/01 09:47:58;;;;;;;7.95;3.45;;;20.70;48.30;;;;;;5006567;28;20022;-73
2021/06/01 09:53:26;;;;;;;5.47;3.72;;;20.70;47.40;;;;;;5010984;28;20368;-72
2021/06/01 09:55:53;;;;;;;6.25;3.13;;;20.80;48.10;;;;;;5007787;28;20025;-71
2021/06/01 09:58:29;;;;;;;4.82;3.15;;;20.70;47.50;;;;;;5005910;28;20471;-72
2021/06/01 10:00:57;;;;;;;5.50;3.58;;;20.70;47.90;;;;;;5008654;28;20055;-71
2021/06/01 10:03:26;;;;;;;5.28;3.40;;;20.70;47.30;;;;;;5014164;28;20091;-71
2021/06/01 10:05:55;;;;;;;4.72;3.13;;;20.70;47.10;;;;;;5008858;28;20357;-71
2021/06/01 10:08:24;;;;;;;5.28;3.45;;;20.80;47.60;;;;;;5010625;28;20042;-71
2021/06/01 10:11:00;;;;;;;6.85;3.90;;;20.80;47.00;;;;;;5004259;28;20469;-71
2021/06/01 10:13:28;;;;;;;7.00;2.95;;;20.80;47.50;;;;;;5003946;28;20033;-72
2021/06/01 10:15:59;;;;;;;5.72;3.20;;;20.90;48.20;;;;;;5004701;28;20030;-72
2021/06/01 10:18:29;;;;;;;5.05;3.42;;;21.00;49.10;;;;;;5012007;28;20431;-73
2021/06/01 10:20:58;;;;;;;4.85;2.85;;;21.00;49.60;;;;;;5012301;28;20022;-72
2021/06/01 10:23:30;;;;;;;5.97;2.95;;;21.00;49.50;;;;;;5013548;28;20045;-72
2021/06/01 10:25:58;;;;;;;5.90;3.38;;;21.10;49.40;;;;;;5015159;28;20064;-73
2021/06/01 10:28:33;;;;;;;4.03;2.97;;;21.10;49.50;;;;;;5007740;28;20033;-73
2021/06/01 10:30:59;;;;;;;4.07;3.08;;;21.20;49.70;;;;;;5010346;28;20065;-72
2021/06/01 10:33:32;;;;;;;4.45;3.30;;;21.10;50.20;;;;;;5012246;28;20087;-72
2021/06/01 10:50:33;;;;;;;6.03;3.88;;;21.60;51.40;;;;;;5006960;28;20165;-71
2021/06/01 10:53:05;;;;;;;9.93;4.65;;;21.70;51.70;;;;;;5021752;28;20030;-71
2021/06/01 10:55:48;;;;;;;5.97;4.00;;;21.80;50.80;;;;;;5004361;28;20025;-72
2021/06/01 10:58:15;;;;;;;4.20;3.33;;;21.90;49.80;;;;;;5011944;28;20101;-71
2021/06/01 11:03:17;;;;;;;5.07;3.80;;;22.00;51.30;;;;;;5002621;28;20022;-72
2021/06/01 11:05:58;;;;;;;7.40;3.47;;;22.20;50.70;;;;;;5009075;28;20033;-72
2021/06/01 11:08:36;;;;;;;4.00;3.05;;;22.30;51.50;;;;;;4999531;28;20069;-71
2021/06/01 11:11:39;;;;;;;5.18;3.70;;;22.40;51.00;;;;;;5006817;28;20116;-70
2021/06/01 11:14:27;;;;;;;4.10;3.47;;;22.60;49.90;;;;;;5029790;28;20041;-70
2021/06/01 11:16:55;;;;;;;6.72;3.30;;;22.60;49.90;;;;;;5008111;28;20485;-70
2021/06/01 11:19:25;;;;;;;4.00;3.28;;;22.60;48.90;;;;;;5009671;28;20037;-70
2021/06/01 11:22:01;;;;;;;4.97;3.50;;;22.70;50.30;;;;;;5007492;28;20025;-70
2021/06/01 11:35:11;;;;;;;4.20;3.40;;;22.80;50.90;;;;;;5007109;28;20092;-70
2021/06/01 11:37:43;;;;;;;5.53;3.88;;;22.80;51.10;;;;;;5004460;28;20105;-71
2021/06/01 11:42:48;;;;;;;5.20;3.85;;;23.10;49.40;;;;;;5010423;28;20084;-71
2021/06/01 11:45:14;;;;;;;3.88;3.38;;;23.10;49.80;;;;;;5008458;28;20080;-71
2021/06/01 11:47:56;;;;;;;5.05;3.50;;;23.20;50.80;;;;;;5009888;28;20038;-74
2021/06/01 11:53:14;;;;;;;5.05;3.83;;;23.50;49.80;;;;;;5005640;28;20037;-71
2021/06/01 11:55:44;;;;;;;8.07;4.15;;;23.70;49.90;;;;;;5008964;28;20109;-68
2021/06/01 12:04:13;;;;;;;6.80;4.38;;;25.60;45.80;;;;;;5003335;28;20388;-70
2021/06/01 12:18:19;;;;;;;3.72;3.15;;;27.70;41.20;;;;;;5002784;28;20403;-68
2021/06/01 12:20:45;;;;;;;5.07;3.80;;;27.70;41.20;;;;;;5002161;28;20034;-67
2021/06/01 12:23:23;;;;;;;4.65;3.53;;;27.70;40.50;;;;;;5007699;28;20117;-69
2021/06/01 12:26:05;;;;;;;5.32;4.00;;;27.60;40.70;;;;;;5007365;28;20034;-69
2021/06/01 12:31:23;;;;;;;4.93;3.90;;;27.70;40.60;;;;;;5008527;28;20124;-70
2021/06/01 12:34:00;;;;;;;8.07;4.07;;;28.10;41.30;;;;;;5011405;28;20409;-69
2021/06/01 12:45:39;;;;;;;3.60;3.30;;;29.30;37.00;;;;;;5009958;28;20028;-70
2021/06/01 13:19:25;;;;;;;6.13;3.35;;;26.30;40.50;;;;;;4996313;28;20156;-71
2021/06/01 13:21:59;;;;;;;3.83;2.80;;;26.20;40.20;;;;;;4993575;28;20029;-71
2021/06/01 13:31:13;;;;;;;3.35;2.75;;;25.60;40.20;;;;;;4999845;28;20386;-71
2021/06/01 13:39:12;;;;;;;3.80;3.10;;;25.10;42.10;;;;;;5004343;28;20111;-71
2021/06/01 13:47:17;;;;;;;6.30;3.20;;;24.80;44.20;;;;;;5004806;28;20030;-72
2021/06/01 13:49:46;;;;;;;4.55;3.28;;;24.60;44.10;;;;;;5009982;28;20030;-73
2021/06/01 13:55:14;;;;;;;3.60;3.10;;;24.40;43.60;;;;;;5010882;28;20037;-72
2021/06/01 14:30:43;;;;;;;5.35;3.40;;;25.10;43.90;;;;;;5007041;28;20018;-71
2021/06/01 14:36:16;;;;;;;6.05;3.30;;;24.80;44.60;;;;;;4998753;28;20579;-71
2021/06/01 14:56:11;;;;;;;4.68;3.00;;;24.40;45.40;;;;;;5003585;28;20053;-72
2021/06/01 15:04:02;;;;;;;5.30;3.35;;;24.30;45.70;;;;;;5002062;28;20150;-72
2021/06/01 16:23:30;;;;;;;3.42;1.95;;;22.40;39.70;;;;;;5007507;28;20068;-72
2021/06/01 16:42:08;;;;;;;5.40;1.50;;;22.10;36.90;;;;;;5025971;28;20472;-72
2021/06/01 17:04:34;;;;;;;2.55;0.90;;;21.60;34.20;;;;;;5022730;28;20073;-71
2021/06/01 17:07:26;;;;;;;8.70;1.67;;;21.70;34.30;;;;;;5025546;28;20145;-70
2021/06/01 17:12:49;;;;;;;3.80;1.30;;;21.60;33.10;;;;;;5030578;28;20033;-74
2021/06/01 17:15:18;;;;;;;4.72;1.40;;;21.50;33.40;;;;;;5026460;28;20109;-69
2021/06/01 17:17:52;;;;;;;2.03;1.05;;;21.50;32.40;;;;;;5016976;28;20524;-73
2021/06/01 17:30:36;;;;;;;1.75;1.02;;;21.30;31.30;;;;;;5012645;28;20164;-68
2021/06/01 17:31:53;;;;;;;1.88;1.00;;;21.20;30.60;;;;;;5013669;28;20033;-69
2021/06/01 17:37:00;;;;;;;1.55;1.08;;;21.10;30.60;;;;;;5011608;28;20033;-71
2021/06/01 17:39:26;;;;;;;3.85;1.40;;;21.00;30.60;;;;;;5013238;28;20854;-70
2021/06/01 17:41:54;;;;;;;4.28;1.52;;;21.00;30.80;;;;;;5014275;28;20029;-69
2021/06/01 17:44:23;;;;;;;1.70;1.10;;;20.90;31.20;;;;;;5015351;28;20464;-73
2021/06/01 17:46:50;;;;;;;2.50;0.90;;;20.80;31.00;;;;;;5011244;28;20120;-72
2021/06/01 17:49:21;;;;;;;1.90;1.20;;;20.80;31.60;;;;;;5012250;28;20075;-74
2021/06/01 17:51:52;;;;;;;2.03;1.30;;;20.80;31.20;;;;;;5006512;28;20034;-72
2021/06/01 17:54:29;;;;;;;3.85;1.33;;;20.70;31.80;;;;;;5008170;28;20115;-72
2021/06/01 17:56:59;;;;;;;2.95;1.15;;;20.70;31.80;;;;;;5012306;28;20042;-73
2021/06/01 17:59:27;;;;;;;1.52;1.23;;;20.70;32.00;;;;;;5013917;28;20397;-74
2021/06/01 18:01:55;;;;;;;2.33;1.20;;;20.70;32.30;;;;;;5015098;28;20026;-74
2021/06/01 18:04:25;;;;;;;4.20;1.17;;;20.60;32.40;;;;;;5013537;28;20125;-76
2021/06/01 18:06:56;;;;;;;1.95;1.20;;;20.60;32.80;;;;;;5018421;28;20092;-76
2021/06/01 19:01:59;;;;;;;1.80;1.30;;;19.50;41.30;;;;;;5005324;28;20060;-72
2021/06/01 19:50:46;;;;;;;4.85;3.08;;;19.10;45.40;;;;;;5004869;28;20097;-74
2021/06/01 19:53:15;;;;;;;4.78;2.67;;;19.10;46.50;;;;;;5006868;28;20034;-74
2021/06/01 19:55:42;;;;;;;6.22;2.92;;;19.10;46.70;;;;;;5007506;28;20022;-74